createdAt,value
2023-05-19T00:02:36.162Z,10.28
2023-05-19T00:06:39.313Z,10.21
2023-05-19T00:10:42.723Z,10.20
2023-05-19T00:14:47.326Z,10.12
2023-05-19T00:18:50.148Z,10.10
2023-05-19T00:22:52.846Z,10.06
2023-05-19T00:26:55.632Z,10.00
2023-05-19T00:30:59.672Z,9.95
2023-05-19T00:35:02.324Z,9.84
2023-05-19T00:39:05.110Z,9.70
2023-05-19T00:43:08.457Z,9.61
2023-05-19T00:47:12.499Z,9.56
2023-05-19T00:51:17.155Z,9.48
2023-05-19T00:55:21.156Z,9.42
2023-05-19T00:59:23.815Z,9.36
2023-05-19T01:03:30.922Z,9.30
2023-05-19T01:07:34.280Z,9.23
2023-05-19T01:11:36.905Z,9.15
2023-05-19T01:15:52.428Z,9.08
2023-05-19T01:20:06.669Z,9.00
2023-05-19T01:24:24.170Z,8.99
2023-05-19T01:28:54.128Z,8.97
2023-05-19T01:33:01.588Z,8.98
2023-05-19T01:37:06.416Z,8.97
2023-05-19T01:41:10.650Z,8.96
2023-05-19T01:45:13.966Z,8.96
2023-05-19T01:49:17.980Z,8.94
2023-05-19T01:53:20.568Z,8.95
2023-05-19T01:57:32.323Z,8.95
2023-05-19T02:01:39.982Z,8.99
2023-05-19T02:05:53.610Z,9.01
2023-05-19T02:10:05.756Z,9.03
2023-05-19T02:14:14.696Z,9.02
2023-05-19T02:18:20.377Z,9.04
2023-05-19T02:22:24.367Z,9.03
2023-05-19T02:26:27.051Z,9.06
2023-05-19T02:30:31.762Z,9.08
2023-05-19T02:34:34.732Z,9.15
2023-05-19T02:38:38.699Z,9.19
2023-05-19T02:42:41.303Z,9.18
2023-05-19T02:46:44.111Z,9.18
2023-05-19T02:50:46.795Z,9.17
2023-05-19T02:54:51.293Z,9.14
2023-05-19T02:58:53.898Z,9.13
2023-05-19T03:02:56.556Z,9.09
2023-05-19T03:06:59.232Z,9.06
2023-05-19T03:11:03.283Z,9.08
2023-05-19T03:15:06.949Z,9.08
2023-05-19T03:19:09.933Z,9.06
2023-05-19T03:23:12.708Z,9.05
2023-05-19T03:27:16.825Z,9.04
2023-05-19T03:31:19.784Z,9.06
2023-05-19T03:35:22.494Z,9.04
2023-05-19T03:39:25.128Z,9.04
2023-05-19T03:43:29.169Z,9.02
2023-05-19T03:47:32.566Z,9.06
2023-05-19T03:51:36.600Z,9.10
2023-05-19T03:55:40.142Z,9.11
2023-05-19T03:59:44.160Z,9.09
2023-05-19T04:03:46.921Z,9.07
2023-05-19T04:07:49.591Z,9.01
2023-05-19T04:11:52.195Z,9.03
2023-05-19T04:15:56.361Z,9.05
2023-05-19T04:19:59.047Z,9.10
2023-05-19T04:24:01.767Z,9.16
2023-05-19T04:28:04.562Z,9.13
2023-05-19T04:32:09.208Z,9.06
2023-05-19T04:36:13.774Z,9.05
2023-05-19T04:40:17.445Z,9.07
2023-05-19T04:44:20.514Z,9.08
2023-05-19T04:48:24.677Z,9.17
2023-05-19T04:52:27.874Z,9.19
2023-05-19T04:56:30.637Z,9.25
2023-05-19T05:00:35.876Z,9.37
2023-05-19T05:04:42.617Z,9.45
2023-05-19T05:08:45.354Z,9.55
2023-05-19T05:12:48.461Z,9.64
2023-05-19T05:16:51.914Z,9.73
2023-05-19T05:20:56.593Z,9.80
2023-05-19T05:24:59.782Z,9.84
2023-05-19T05:29:02.622Z,9.94
2023-05-19T05:33:05.379Z,10.04
2023-05-19T05:37:09.483Z,10.21
2023-05-19T05:41:12.182Z,10.27
2023-05-19T05:45:14.887Z,10.37
2023-05-19T05:49:18.115Z,10.47
2023-05-19T05:53:23.144Z,10.67
2023-05-19T05:57:25.804Z,10.66
2023-05-19T06:01:31.866Z,10.73
2023-05-19T06:05:35.822Z,10.78
2023-05-19T06:09:39.830Z,10.84
2023-05-19T06:13:42.516Z,10.93
2023-05-19T06:17:45.239Z,11.04
2023-05-19T06:21:47.950Z,11.11
2023-05-19T06:25:51.981Z,11.13
2023-05-19T06:29:54.851Z,11.16
2023-05-19T06:33:57.486Z,11.34
2023-05-19T06:38:00.175Z,11.53
2023-05-19T06:42:04.440Z,11.80
2023-05-19T06:46:07.100Z,12.01
2023-05-19T06:50:11.165Z,12.24
2023-05-19T06:54:16.113Z,12.53
2023-05-19T06:58:20.396Z,12.72
2023-05-19T07:02:23.172Z,12.92
2023-05-19T07:06:26.085Z,12.98
2023-05-19T07:10:29.018Z,13.02
2023-05-19T07:14:33.073Z,13.02
2023-05-19T07:18:35.855Z,12.81
2023-05-19T07:22:39.670Z,13.11
2023-05-19T07:26:42.668Z,13.40
2023-05-19T07:30:46.647Z,13.25
2023-05-19T07:34:49.330Z,13.20
2023-05-19T07:38:52.189Z,13.09
2023-05-19T07:42:54.832Z,13.21
2023-05-19T07:46:59.109Z,13.21
2023-05-19T07:51:01.717Z,13.05
2023-05-19T07:55:05.138Z,13.10
2023-05-19T07:59:08.261Z,13.15
2023-05-19T08:03:13.357Z,13.19
2023-05-19T08:07:16.257Z,13.29
2023-05-19T08:11:18.964Z,13.50
2023-05-19T08:15:21.873Z,13.54
2023-05-19T08:19:26.976Z,13.54
2023-05-19T08:23:30.135Z,13.54
2023-05-19T08:27:32.832Z,13.78
2023-05-19T08:31:35.532Z,14.02
2023-05-19T08:35:39.620Z,14.11
2023-05-19T08:39:43.113Z,14.24
2023-05-19T08:43:45.830Z,14.42
2023-05-19T08:47:48.544Z,14.64
2023-05-19T08:52:01.418Z,14.62
2023-05-19T08:56:11.257Z,14.69
2023-05-19T09:00:15.885Z,15.07
2023-05-19T09:04:18.713Z,15.19
2023-05-19T09:08:22.781Z,15.11
2023-05-19T09:12:25.506Z,14.94
2023-05-19T09:16:30.249Z,15.13
2023-05-19T09:20:33.183Z,15.40
2023-05-19T09:24:39.093Z,15.60
2023-05-19T09:28:41.952Z,15.62
2023-05-19T09:32:44.821Z,15.40
2023-05-19T09:36:49.483Z,15.46
2023-05-19T09:40:54.103Z,16.27
2023-05-19T09:45:01.833Z,17.10
2023-05-19T09:49:10.311Z,16.65
2023-05-19T09:53:14.958Z,17.20
2023-05-19T09:57:18.949Z,17.09
2023-05-19T10:01:22.243Z,17.70
2023-05-19T10:05:25.585Z,17.44
2023-05-19T10:09:30.514Z,16.84
2023-05-19T10:13:39.087Z,16.67
2023-05-19T10:17:43.446Z,16.45
2023-05-19T10:21:47.078Z,16.82
2023-05-19T10:25:52.150Z,17.42
2023-05-19T10:30:00.178Z,17.57
2023-05-19T10:34:31.327Z,18.21
2023-05-19T10:38:40.219Z,18.71
2023-05-19T10:42:55.062Z,17.42
2023-05-19T10:46:59.307Z,16.77
2023-05-19T10:51:02.054Z,16.68
2023-05-19T10:55:05.305Z,17.05
2023-05-19T10:59:08.822Z,17.22
2023-05-19T11:03:15.994Z,18.20
2023-05-19T11:07:20.536Z,18.09
2023-05-19T11:11:23.616Z,18.54
2023-05-19T11:15:28.206Z,18.63
2023-05-19T11:19:33.759Z,19.21
2023-05-19T11:23:41.167Z,19.15
2023-05-19T11:27:47.416Z,18.54
2023-05-19T11:31:50.588Z,18.05
2023-05-19T11:35:57.930Z,18.25
2023-05-19T11:40:03.121Z,18.26
2023-05-19T11:44:11.041Z,17.93
2023-05-19T11:48:14.025Z,17.85
2023-05-19T11:52:18.090Z,17.95
2023-05-19T11:56:21.481Z,18.32
2023-05-19T12:00:25.044Z,18.32
2023-05-19T12:04:27.659Z,18.47
2023-05-19T12:08:31.974Z,18.10
2023-05-19T12:12:35.984Z,18.58
2023-05-19T12:16:38.780Z,19.39
2023-05-19T12:20:42.030Z,20.08
2023-05-19T12:24:48.227Z,19.99
2023-05-19T12:28:52.738Z,20.09
2023-05-19T12:32:56.901Z,19.98
2023-05-19T12:37:00.589Z,20.18
2023-05-19T12:41:05.437Z,19.58
2023-05-19T12:45:09.434Z,19.72
2023-05-19T12:49:12.550Z,20.40
2023-05-19T12:53:16.182Z,20.38
2023-05-19T12:57:22.011Z,20.51
2023-05-19T13:01:25.385Z,20.23
2023-05-19T13:05:29.056Z,20.20
2023-05-19T13:09:35.044Z,19.41
2023-05-19T13:13:39.002Z,18.76
2023-05-19T13:17:42.055Z,18.71
2023-05-19T13:21:47.365Z,18.72
2023-05-19T13:25:50.684Z,19.39
2023-05-19T13:29:54.694Z,19.00
2023-05-19T13:33:57.413Z,19.94
2023-05-19T13:38:00.067Z,19.78
2023-05-19T13:42:03.007Z,20.30
2023-05-19T13:46:07.161Z,19.97
2023-05-19T13:50:11.020Z,20.53
2023-05-19T13:54:13.658Z,20.45
2023-05-19T13:58:17.073Z,20.43
2023-05-19T14:02:22.045Z,20.35
2023-05-19T14:06:24.883Z,19.97
2023-05-19T14:10:27.863Z,19.94
2023-05-19T14:14:30.810Z,19.82
2023-05-19T14:18:35.947Z,19.55
2023-05-19T14:22:38.606Z,19.31
2023-05-19T14:26:41.743Z,19.09
2023-05-19T14:30:44.981Z,18.90
2023-05-19T14:34:52.726Z,18.83
2023-05-19T14:38:55.395Z,19.52
2023-05-19T14:42:58.038Z,20.13
2023-05-19T14:47:02.023Z,20.48
2023-05-19T14:51:06.237Z,20.08
2023-05-19T14:55:09.651Z,19.83
2023-05-19T14:59:12.296Z,19.53
2023-05-19T15:03:14.976Z,19.03
2023-05-19T15:07:19.343Z,18.96
2023-05-19T15:11:22.473Z,18.92
2023-05-19T15:15:25.097Z,18.84
2023-05-19T15:19:27.978Z,18.73
2023-05-19T15:23:32.176Z,18.81
2023-05-19T15:27:35.654Z,18.76
2023-05-19T15:31:38.624Z,18.60
2023-05-19T15:35:41.373Z,18.61
2023-05-19T15:39:45.530Z,18.75
2023-05-19T15:43:48.187Z,19.07
2023-05-19T15:47:50.850Z,19.29
2023-05-19T15:51:53.506Z,19.19
2023-05-19T15:55:57.817Z,19.54
2023-05-19T16:00:00.576Z,19.37
2023-05-19T16:04:04.001Z,18.95
2023-05-19T16:08:08.705Z,18.77
2023-05-19T16:12:12.893Z,19.13
2023-05-19T16:16:15.825Z,19.25
2023-05-19T16:20:18.703Z,19.25
2023-05-19T16:24:21.328Z,19.15
2023-05-19T16:28:25.457Z,19.07
2023-05-19T16:32:28.230Z,19.14
2023-05-19T16:36:31.885Z,19.26
2023-05-19T16:40:35.057Z,19.50
2023-05-19T16:44:39.369Z,19.23
2023-05-19T16:48:42.109Z,19.15
2023-05-19T16:52:44.923Z,18.71
2023-05-19T16:56:47.554Z,18.39
2023-05-19T17:00:53.663Z,18.40
2023-05-19T17:04:56.396Z,18.24
2023-05-19T17:08:59.059Z,17.91
2023-05-19T17:13:01.864Z,17.79
2023-05-19T17:17:06.166Z,17.59
2023-05-19T17:21:08.866Z,17.47
2023-05-19T17:25:11.757Z,17.34
2023-05-19T17:29:14.416Z,17.23
2023-05-19T17:33:18.486Z,17.14
2023-05-19T17:37:23.484Z,16.99
2023-05-19T17:41:26.342Z,16.92
2023-05-19T17:45:29.025Z,16.75
2023-05-19T17:49:33.007Z,16.65
2023-05-19T17:53:36.697Z,16.53
2023-05-19T17:57:41.889Z,16.36
2023-05-19T18:01:45.327Z,16.36
2023-05-19T18:05:50.407Z,16.24
2023-05-19T18:09:56.200Z,15.97
2023-05-19T18:13:58.818Z,15.74
2023-05-19T18:18:03.011Z,15.57
2023-05-19T18:22:07.360Z,15.41
2023-05-19T18:26:11.362Z,15.36
2023-05-19T18:30:14.511Z,15.29
2023-05-19T18:34:17.148Z,15.27
2023-05-19T18:38:23.620Z,15.15
2023-05-19T18:42:26.273Z,15.07
2023-05-19T18:46:29.869Z,14.96
2023-05-19T18:50:32.763Z,14.91
2023-05-19T18:54:37.585Z,14.79
2023-05-19T18:58:40.179Z,14.73
2023-05-19T19:02:43.060Z,14.70
2023-05-19T19:06:45.823Z,14.61
2023-05-19T19:10:51.620Z,14.61
2023-05-19T19:14:54.811Z,14.54
2023-05-19T19:18:57.483Z,14.42
2023-05-19T19:23:01.944Z,14.32
2023-05-19T19:27:06.530Z,14.29
2023-05-19T19:31:09.230Z,14.28
2023-05-19T19:35:12.263Z,14.31
2023-05-19T19:39:15.052Z,14.26
2023-05-19T19:43:19.080Z,14.23
2023-05-19T19:47:21.861Z,14.16
2023-05-19T19:51:24.841Z,14.14
2023-05-19T19:55:28.799Z,14.11
2023-05-19T19:59:32.814Z,14.09
2023-05-19T20:03:36.456Z,14.06
2023-05-19T20:07:39.224Z,14.00
2023-05-19T20:11:41.900Z,13.94
2023-05-19T20:15:47.136Z,13.96
2023-05-19T20:19:49.864Z,13.92
2023-05-19T20:23:52.670Z,13.94
2023-05-19T20:27:55.426Z,13.88
2023-05-19T20:31:59.467Z,13.89
2023-05-19T20:36:02.078Z,13.90
2023-05-19T20:40:05.682Z,13.88
2023-05-19T20:44:10.248Z,13.89
2023-05-19T20:48:15.683Z,13.83
2023-05-19T20:52:19.390Z,13.77
2023-05-19T20:56:23.078Z,13.76
2023-05-19T21:00:25.866Z,13.71
2023-05-19T21:04:30.854Z,13.69
2023-05-19T21:08:33.531Z,13.62
2023-05-19T21:12:36.155Z,13.60
2023-05-19T21:16:39.284Z,13.56
2023-05-19T21:20:43.310Z,13.45
2023-05-19T21:24:46.017Z,13.38
2023-05-19T21:28:48.709Z,13.29
2023-05-19T21:32:51.790Z,13.22
2023-05-19T21:36:55.836Z,13.22
2023-05-19T21:40:58.658Z,13.15
2023-05-19T21:45:01.944Z,13.08
2023-05-19T21:49:06.378Z,13.02
2023-05-19T21:53:11.621Z,12.97
2023-05-19T21:57:14.414Z,12.93
2023-05-19T22:01:17.099Z,12.90
2023-05-19T22:05:19.781Z,12.86
2023-05-19T22:09:23.949Z,12.89
2023-05-19T22:13:26.684Z,12.90
2023-05-19T22:17:29.944Z,12.93
2023-05-19T22:21:33.205Z,12.94
2023-05-19T22:25:37.243Z,12.93
2023-05-19T22:29:39.922Z,12.94
2023-05-19T22:33:42.744Z,12.93
2023-05-19T22:37:45.420Z,12.95
2023-05-19T22:41:49.444Z,12.89
2023-05-19T22:45:52.147Z,12.83
2023-05-19T22:49:55.676Z,12.73
2023-05-19T22:53:59.886Z,12.71
2023-05-19T22:58:03.979Z,12.63
2023-05-19T23:02:06.913Z,12.55
2023-05-19T23:06:09.781Z,12.44
2023-05-19T23:10:12.767Z,12.33
2023-05-19T23:14:18.475Z,12.29
2023-05-19T23:18:21.316Z,12.25
2023-05-19T23:22:24.139Z,12.21
2023-05-19T23:26:27.511Z,12.16
2023-05-19T23:30:33.139Z,12.21
2023-05-19T23:34:36.140Z,12.18
2023-05-19T23:38:38.844Z,12.12
2023-05-19T23:42:41.596Z,12.15
2023-05-19T23:46:45.704Z,12.17
2023-05-19T23:50:48.832Z,12.14
2023-05-19T23:54:52.159Z,12.10
2023-05-19T23:58:55.009Z,12.06
